sensor_id;sensor_type;location;lat;lon;timestamp;pressure;altitude;pressure_sealevel;temperature;humidity
54936;BME280;40838;50.676;7.838;2023-07-20T00:00:32;98161.06;;;13.16;100.00
54936;BME280;40838;50.676;7.838;2023-07-20T00:03:12;98158.66;;;13.15;100.00
54936;BME280;40838;50.676;7.838;2023-07-20T00:05:42;98154.97;;;13.06;100.00
54936;BME280;40838;50.676;7.838;2023-07-20T00:08:11;98155.56;;;12.92;100.00
54936;BME280;40838;50.676;7.838;2023-07-20T00:10:41;98155.81;;;12.86;100.00
54936;BME280;40838;50.676;7.838;2023-07-20T00:13:11;98160.66;;;12.68;100.00
54936;BME280;40838;50.676;7.838;2023-07-20T00:15:38;98149.75;;;12.49;100.00
54936;BME280;40838;50.676;7.838;2023-07-20T00:18:05;98151.88;;;12.47;100.00
54936;BME280;40838;50.676;7.838;2023-07-20T00:20:32;98156.44;;;12.57;100.00
54936;BME280;40838;50.676;7.838;2023-07-20T00:22:58;98144.19;;;12.46;100.00
54936;BME280;40838;50.676;7.838;2023-07-20T00:25:27;98150.84;;;12.43;100.00
54936;BME280;40838;50.676;7.838;2023-07-20T00:27:55;98154.28;;;12.39;100.00
54936;BME280;40838;50.676;7.838;2023-07-20T00:30:32;98144.47;;;12.19;100.00
54936;BME280;40838;50.676;7.838;2023-07-20T00:33:01;98143.13;;;12.26;100.00
54936;BME280;40838;50.676;7.838;2023-07-20T00:35:31;98138.63;;;12.32;100.00
54936;BME280;40838;50.676;7.838;2023-07-20T00:37:59;98138.34;;;12.39;100.00
54936;BME280;40838;50.676;7.838;2023-07-20T00:40:28;98144.19;;;12.36;100.00
54936;BME280;40838;50.676;7.838;2023-07-20T00:42:56;98146.59;;;12.22;100.00
54936;BME280;40838;50.676;7.838;2023-07-20T00:45:26;98141.03;;;12.13;100.00
54936;BME280;40838;50.676;7.838;2023-07-20T00:47:53;98146.59;;;12.32;100.00
54936;BME280;40838;50.676;7.838;2023-07-20T00:50:20;98159.59;;;12.28;100.00
54936;BME280;40838;50.676;7.838;2023-07-20T00:52:49;98148.69;;;12.30;100.00
54936;BME280;40838;50.676;7.838;2023-07-20T00:55:18;98154.28;;;12.39;100.00
54936;BME280;40838;50.676;7.838;2023-07-20T00:57:45;98147.91;;;12.45;100.00
54936;BME280;40838;50.676;7.838;2023-07-20T01:00:16;98152.16;;;12.46;100.00
54936;BME280;40838;50.676;7.838;2023-07-20T01:02:44;98152.69;;;12.53;100.00
54936;BME280;40838;50.676;7.838;2023-07-20T01:05:42;98153.75;;;12.62;100.00
54936;BME280;40838;50.676;7.838;2023-07-20T01:08:17;98154.25;;;12.80;100.00
54936;BME280;40838;50.676;7.838;2023-07-20T01:10:53;98152.66;;;12.79;100.00
54936;BME280;40838;50.676;7.838;2023-07-20T01:13:23;98158.50;;;12.81;100.00
54936;BME280;40838;50.676;7.838;2023-07-20T01:16:02;98162.50;;;12.83;100.00
54936;BME280;40838;50.676;7.838;2023-07-20T01:18:29;98162.22;;;12.85;100.00
54936;BME280;40838;50.676;7.838;2023-07-20T01:20:59;98163.78;;;12.86;100.00
54936;BME280;40838;50.676;7.838;2023-07-20T01:23:41;98167.53;;;12.80;100.00
54936;BME280;40838;50.676;7.838;2023-07-20T01:26:38;98160.09;;;12.87;100.00
54936;BME280;40838;50.676;7.838;2023-07-20T01:29:14;98162.19;;;12.95;100.00
54936;BME280;40838;50.676;7.838;2023-07-20T01:31:46;98154.72;;;13.02;100.00
54936;BME280;40838;50.676;7.838;2023-07-20T01:34:17;98154.44;;;13.09;100.00
54936;BME280;40838;50.676;7.838;2023-07-20T01:36:46;98160.81;;;13.13;100.00
54936;BME280;40838;50.676;7.838;2023-07-20T01:39:14;98162.38;;;13.19;100.00
54936;BME280;40838;50.676;7.838;2023-07-20T01:41:59;98159.75;;;13.14;100.00
54936;BME280;40838;50.676;7.838;2023-07-20T01:44:27;98161.63;;;13.08;100.00
54936;BME280;40838;50.676;7.838;2023-07-20T01:46:56;98167.47;;;13.15;100.00
54936;BME280;40838;50.676;7.838;2023-07-20T01:49:23;98169.03;;;13.11;100.00
54936;BME280;40838;50.676;7.838;2023-07-20T01:51:50;98171.16;;;13.14;100.00
54936;BME280;40838;50.676;7.838;2023-07-20T01:54:16;98165.06;;;13.14;100.00
54936;BME280;40838;50.676;7.838;2023-07-20T01:56:45;98164.53;;;13.12;100.00
54936;BME280;40838;50.676;7.838;2023-07-20T01:59:15;98167.19;;;13.12;100.00
54936;BME280;40838;50.676;7.838;2023-07-20T02:01:43;98164.81;;;13.10;100.00
54936;BME280;40838;50.676;7.838;2023-07-20T02:04:13;98161.31;;;13.15;100.00
54936;BME280;40838;50.676;7.838;2023-07-20T02:06:41;98162.63;;;13.23;100.00
54936;BME280;40838;50.676;7.838;2023-07-20T02:09:10;98165.06;;;13.14;100.00
54936;BME280;40838;50.676;7.838;2023-07-20T02:11:37;98161.38;;;13.05;100.00
54936;BME280;40838;50.676;7.838;2023-07-20T02:14:04;98151.53;;;13.10;100.00
54936;BME280;40838;50.676;7.838;2023-07-20T02:16:31;98152.56;;;13.14;100.00
54936;BME280;40838;50.676;7.838;2023-07-20T02:18:58;98153.66;;;13.08;100.00
54936;BME280;40838;50.676;7.838;2023-07-20T02:21:29;98158.69;;;13.10;100.00
54936;BME280;40838;50.676;7.838;2023-07-20T02:23:58;98153.13;;;13.06;100.00
54936;BME280;40838;50.676;7.838;2023-07-20T02:26:24;98149.69;;;13.01;100.00
54936;BME280;40838;50.676;7.838;2023-07-20T02:28:54;98157.41;;;12.97;100.00
54936;BME280;40838;50.676;7.838;2023-07-20T02:31:20;98154.47;;;13.04;100.00
54936;BME280;40838;50.676;7.838;2023-07-20T02:33:53;98152.63;;;12.94;100.00
54936;BME280;40838;50.676;7.838;2023-07-20T02:36:20;98151.28;;;13.02;100.00
54936;BME280;40838;50.676;7.838;2023-07-20T02:39:05;98148.63;;;12.96;100.00
54936;BME280;40838;50.676;7.838;2023-07-20T02:41:33;98151.84;;;12.93;100.00
54936;BME280;40838;50.676;7.838;2023-07-20T02:44:00;98150.50;;;12.86;100.00
54936;BME280;40838;50.676;7.838;2023-07-20T02:46:29;98147.34;;;12.89;100.00
54936;BME280;40838;50.676;7.838;2023-07-20T02:48:58;98145.19;;;12.91;100.00
54936;BME280;40838;50.676;7.838;2023-07-20T02:51:27;98144.44;;;12.80;100.00
54936;BME280;40838;50.676;7.838;2023-07-20T02:53:58;98141.25;;;12.78;100.00
54936;BME280;40838;50.676;7.838;2023-07-20T02:56:26;98148.16;;;12.79;100.00
54936;BME280;40838;50.676;7.838;2023-07-20T02:58:52;98141.00;;;12.74;100.00
54936;BME280;40838;50.676;7.838;2023-07-20T03:01:19;98144.75;;;12.63;100.00
54936;BME280;40838;50.676;7.838;2023-07-20T03:03:46;98143.66;;;12.59;100.00
54936;BME280;40838;50.676;7.838;2023-07-20T03:06:23;98148.44;;;12.62;100.00
54936;BME280;40838;50.676;7.838;2023-07-20T03:08:50;98146.84;;;12.61;100.00
54936;BME280;40838;50.676;7.838;2023-07-20T03:11:21;98151.91;;;12.52;100.00
54936;BME280;40838;50.676;7.838;2023-07-20T03:13:48;98147.91;;;12.50;100.00
54936;BME280;40838;50.676;7.838;2023-07-20T03:16:18;98153.00;;;12.57;100.00
54936;BME280;40838;50.676;7.838;2023-07-20T03:18:46;98154.28;;;12.64;100.00
54936;BME280;40838;50.676;7.838;2023-07-20T03:21:13;98155.06;;;12.75;100.00
54936;BME280;40838;50.676;7.838;2023-07-20T03:23:40;98163.56;;;12.72;100.00
54936;BME280;40838;50.676;7.838;2023-07-20T03:26:09;98159.56;;;12.80;100.00
54936;BME280;40838;50.676;7.838;2023-07-20T03:28:37;98159.03;;;12.88;100.00
54936;BME280;40838;50.676;7.838;2023-07-20T03:31:10;98157.16;;;12.88;100.00
54936;BME280;40838;50.676;7.838;2023-07-20T03:33:39;98154.00;;;12.86;100.00
54936;BME280;40838;50.676;7.838;2023-07-20T03:36:09;98155.84;;;12.81;100.00
54936;BME280;40838;50.676;7.838;2023-07-20T03:38:36;98157.44;;;12.87;100.00
54936;BME280;40838;50.676;7.838;2023-07-20T03:41:03;98164.31;;;12.93;100.00
54936;BME280;40838;50.676;7.838;2023-07-20T03:43:48;98167.22;;;12.96;100.00
54936;BME280;40838;50.676;7.838;2023-07-20T03:46:15;98166.19;;;12.98;100.00
54936;BME280;40838;50.676;7.838;2023-07-20T03:48:42;98166.69;;;12.94;100.00
54936;BME280;40838;50.676;7.838;2023-07-20T03:51:13;98172.28;;;12.98;100.00
54936;BME280;40838;50.676;7.838;2023-07-20T03:53:40;98170.38;;;13.09;100.00
54936;BME280;40838;50.676;7.838;2023-07-20T03:56:17;98176.50;;;13.09;100.00
54936;BME280;40838;50.676;7.838;2023-07-20T03:58:45;98171.72;;;13.06;100.00
54936;BME280;40838;50.676;7.838;2023-07-20T04:01:14;98172.50;;;13.12;100.00
54936;BME280;40838;50.676;7.838;2023-07-20T04:03:45;98174.41;;;13.01;100.00
54936;BME280;40838;50.676;7.838;2023-07-20T04:06:14;98168.03;;;12.97;100.00
54936;BME280;40838;50.676;7.838;2023-07-20T04:08:43;98172.25;;;13.03;100.00
54936;BME280;40838;50.676;7.838;2023-07-20T04:11:09;98173.31;;;13.07;100.00
54936;BME280;40838;50.676;7.838;2023-07-20T04:13:36;98177.84;;;13.02;100.00
54936;BME280;40838;50.676;7.838;2023-07-20T04:16:05;98174.09;;;13.13;100.00
54936;BME280;40838;50.676;7.838;2023-07-20T04:18:37;98178.63;;;13.12;100.00
54936;BME280;40838;50.676;7.838;2023-07-20T04:21:04;98169.56;;;13.13;100.00
54936;BME280;40838;50.676;7.838;2023-07-20T04:23:32;98180.75;;;13.10;100.00
54936;BME280;40838;50.676;7.838;2023-07-20T04:26:00;98176.47;;;13.14;100.00
54936;BME280;40838;50.676;7.838;2023-07-20T04:28:28;98166.63;;;13.25;100.00
54936;BME280;40838;50.676;7.838;2023-07-20T04:31:12;98162.91;;;13.21;100.00
54936;BME280;40838;50.676;7.838;2023-07-20T04:33:44;98169.03;;;13.16;100.00
54936;BME280;40838;50.676;7.838;2023-07-20T04:36:10;98175.91;;;13.23;100.00
54936;BME280;40838;50.676;7.838;2023-07-20T04:38:39;98184.44;;;13.25;100.00
54936;BME280;40838;50.676;7.838;2023-07-20T04:41:16;98179.91;;;13.20;100.00
54936;BME280;40838;50.676;7.838;2023-07-20T04:43:47;98182.81;;;13.29;100.00
54936;BME280;40838;50.676;7.838;2023-07-20T04:46:20;98182.81;;;13.24;100.00
54936;BME280;40838;50.676;7.838;2023-07-20T04:48:47;98181.47;;;13.26;100.00
54936;BME280;40838;50.676;7.838;2023-07-20T04:51:14;98182.00;;;13.28;100.00
54936;BME280;40838;50.676;7.838;2023-07-20T04:53:45;98187.88;;;13.25;100.00
54936;BME280;40838;50.676;7.838;2023-07-20T04:56:17;98179.88;;;13.30;100.00
54936;BME280;40838;50.676;7.838;2023-07-20T04:58:45;98182.78;;;13.34;100.00
54936;BME280;40838;50.676;7.838;2023-07-20T05:01:12;98183.56;;;13.39;100.00
54936;BME280;40838;50.676;7.838;2023-07-20T05:03:41;98186.16;;;13.50;100.00
54936;BME280;40838;50.676;7.838;2023-07-20T05:06:09;98184.91;;;13.32;100.00
54936;BME280;40838;50.676;7.838;2023-07-20T05:08:36;98179.88;;;13.30;100.00
54936;BME280;40838;50.676;7.838;2023-07-20T05:11:04;98180.34;;;13.48;100.00
54936;BME280;40838;50.676;7.838;2023-07-20T05:13:41;98188.00;;;13.59;100.00
54936;BME280;40838;50.676;7.838;2023-07-20T05:16:08;98180.81;;;13.65;100.00
54936;BME280;40838;50.676;7.838;2023-07-20T05:18:35;98187.97;;;13.64;100.00
54936;BME280;40838;50.676;7.838;2023-07-20T05:21:06;98185.59;;;13.58;100.00
54936;BME280;40838;50.676;7.838;2023-07-20T05:23:35;98180.06;;;13.44;100.00
54936;BME280;40838;50.676;7.838;2023-07-20T05:26:02;98184.34;;;13.45;100.00
54936;BME280;40838;50.676;7.838;2023-07-20T05:28:29;98172.59;;;13.56;100.00
54936;BME280;40838;50.676;7.838;2023-07-20T05:30:56;98184.25;;;13.71;100.00
54936;BME280;40838;50.676;7.838;2023-07-20T05:33:25;98179.72;;;13.71;100.00
54936;BME280;40838;50.676;7.838;2023-07-20T05:35:51;98186.38;;;13.69;100.00
54936;BME280;40838;50.676;7.838;2023-07-20T05:38:26;98182.63;;;13.75;100.00
54936;BME280;40838;50.676;7.838;2023-07-20T05:41:07;98183.16;;;13.77;100.00
54936;BME280;40838;50.676;7.838;2023-07-20T05:43:35;98186.16;;;13.55;100.00
54936;BME280;40838;50.676;7.838;2023-07-20T05:46:02;98176.53;;;13.69;100.00
54936;BME280;40838;50.676;7.838;2023-07-20T05:48:31;98176.41;;;13.95;100.00
54936;BME280;40838;50.676;7.838;2023-07-20T05:51:00;98177.97;;;14.35;100.00
54936;BME280;40838;50.676;7.838;2023-07-20T05:53:30;98175.72;;;14.13;100.00
54936;BME280;40838;50.676;7.838;2023-07-20T05:55:59;98173.66;;;14.39;100.00
54936;BME280;40838;50.676;7.838;2023-07-20T05:58:40;98177.28;;;14.19;100.00
54936;BME280;40838;50.676;7.838;2023-07-20T06:01:07;98181.72;;;13.95;100.00
54936;BME280;40838;50.676;7.838;2023-07-20T06:03:38;98180.25;;;14.13;100.00
54936;BME280;40838;50.676;7.838;2023-07-20T06:06:04;98188.84;;;14.04;100.00
54936;BME280;40838;50.676;7.838;2023-07-20T06:08:34;98195.16;;;14.14;100.00
54936;BME280;40838;50.676;7.838;2023-07-20T06:11:01;98191.59;;;13.89;100.00
54936;BME280;40838;50.676;7.838;2023-07-20T06:13:28;98202.56;;;14.17;100.00
54936;BME280;40838;50.676;7.838;2023-07-20T06:16:01;98196.88;;;14.33;100.00
54936;BME280;40838;50.676;7.838;2023-07-20T06:18:31;98206.53;;;14.24;100.00
54936;BME280;40838;50.676;7.838;2023-07-20T06:20:58;98200.34;;;14.29;100.00
54936;BME280;40838;50.676;7.838;2023-07-20T06:23:25;98209.59;;;14.42;100.00
54936;BME280;40838;50.676;7.838;2023-07-20T06:25:53;98201.63;;;14.76;100.00
54936;BME280;40838;50.676;7.838;2023-07-20T06:28:20;98203.78;;;14.98;100.00
54936;BME280;40838;50.676;7.838;2023-07-20T06:30:47;98213.78;;;14.53;100.00
54936;BME280;40838;50.676;7.838;2023-07-20T06:33:16;98213.56;;;14.44;100.00
54936;BME280;40838;50.676;7.838;2023-07-20T06:35:43;98212.06;;;14.67;100.00
54936;BME280;40838;50.676;7.838;2023-07-20T06:38:17;98215.09;;;14.55;100.00
54936;BME280;40838;50.676;7.838;2023-07-20T06:40:48;98200.66;;;14.91;100.00
54936;BME280;40838;50.676;7.838;2023-07-20T06:43:17;98202.81;;;15.37;100.00
54936;BME280;40838;50.676;7.838;2023-07-20T06:45:43;98208.03;;;15.47;100.00
54936;BME280;40838;50.676;7.838;2023-07-20T06:48:11;98209.47;;;15.15;100.00
54936;BME280;40838;50.676;7.838;2023-07-20T06:50:39;98211.88;;;15.60;100.00
54936;BME280;40838;50.676;7.838;2023-07-20T06:53:07;98202.06;;;15.79;100.00
54936;BME280;40838;50.676;7.838;2023-07-20T06:55:34;98206.38;;;16.13;100.00
54936;BME280;40838;50.676;7.838;2023-07-20T06:58:01;98209.00;;;16.51;100.00
54936;BME280;40838;50.676;7.838;2023-07-20T07:00:30;98203.88;;;17.84;100.00
54936;BME280;40838;50.676;7.838;2023-07-20T07:02:56;98210.72;;;17.35;100.00
54936;BME280;40838;50.676;7.838;2023-07-20T07:05:23;98211.06;;;17.97;100.00
54936;BME280;40838;50.676;7.838;2023-07-20T07:07:52;98203.38;;;20.52;100.00
54936;BME280;40838;50.676;7.838;2023-07-20T07:13:02;98211.69;;;18.16;100.00
54936;BME280;40838;50.676;7.838;2023-07-20T07:15:34;98210.38;;;19.04;100.00
54936;BME280;40838;50.676;7.838;2023-07-20T07:18:02;98222.63;;;18.06;100.00
54936;BME280;40838;50.676;7.838;2023-07-20T07:20:30;98206.91;;;21.89;100.00
54936;BME280;40838;50.676;7.838;2023-07-20T07:22:56;98213.34;;;20.34;100.00
54936;BME280;40838;50.676;7.838;2023-07-20T07:25:23;98214.22;;;18.58;100.00
54936;BME280;40838;50.676;7.838;2023-07-20T07:27:58;98213.56;;;17.93;100.00
54936;BME280;40838;50.676;7.838;2023-07-20T07:30:27;98217.47;;;17.18;100.00
54936;BME280;40838;50.676;7.838;2023-07-20T07:33:01;98219.97;;;17.42;100.00
54936;BME280;40838;50.676;7.838;2023-07-20T07:35:28;98219.38;;;18.32;100.00
54936;BME280;40838;50.676;7.838;2023-07-20T07:37:55;98219.28;;;18.59;100.00
54936;BME280;40838;50.676;7.838;2023-07-20T07:40:28;98216.59;;;17.37;100.00
54936;BME280;40838;50.676;7.838;2023-07-20T07:42:55;98220.59;;;16.60;100.00
54936;BME280;40838;50.676;7.838;2023-07-20T07:45:23;98213.16;;;16.24;100.00
54936;BME280;40838;50.676;7.838;2023-07-20T07:47:50;98208.59;;;20.31;100.00
54936;BME280;40838;50.676;7.838;2023-07-20T07:50:18;98213.47;;;19.86;100.00
54936;BME280;40838;50.676;7.838;2023-07-20T07:52:49;98226.28;;;22.24;100.00
54936;BME280;40838;50.676;7.838;2023-07-20T07:55:17;98220.03;;;21.69;100.00
54936;BME280;40838;50.676;7.838;2023-07-20T07:57:43;98220.97;;;22.57;96.99
54936;BME280;40838;50.676;7.838;2023-07-20T08:00:13;98223.81;;;22.73;97.28
54936;BME280;40838;50.676;7.838;2023-07-20T08:02:41;98228.47;;;21.59;100.00
54936;BME280;40838;50.676;7.838;2023-07-20T08:05:08;98221.31;;;17.95;100.00
54936;BME280;40838;50.676;7.838;2023-07-20T08:07:40;98222.81;;;17.74;100.00
54936;BME280;40838;50.676;7.838;2023-07-20T08:10:09;98228.88;;;17.65;100.00
54936;BME280;40838;50.676;7.838;2023-07-20T08:12:36;98224.31;;;17.11;100.00
54936;BME280;40838;50.676;7.838;2023-07-20T08:15:04;98229.25;;;17.59;100.00
54936;BME280;40838;50.676;7.838;2023-07-20T08:17:32;98227.72;;;18.98;100.00
54936;BME280;40838;50.676;7.838;2023-07-20T08:20:01;98233.38;;;18.65;100.00
54936;BME280;40838;50.676;7.838;2023-07-20T08:22:30;98221.84;;;19.27;100.00
54936;BME280;40838;50.676;7.838;2023-07-20T08:24:58;98231.88;;;18.36;100.00
54936;BME280;40838;50.676;7.838;2023-07-20T08:27:29;98223.22;;;19.73;100.00
54936;BME280;40838;50.676;7.838;2023-07-20T08:29:56;98229.63;;;20.47;100.00
54936;BME280;40838;50.676;7.838;2023-07-20T08:32:23;98241.28;;;20.07;100.00
54936;BME280;40838;50.676;7.838;2023-07-20T08:34:50;98229.84;;;21.65;100.00
54936;BME280;40838;50.676;7.838;2023-07-20T08:37:17;98244.66;;;19.16;100.00
54936;BME280;40838;50.676;7.838;2023-07-20T08:39:45;98239.22;;;19.29;100.00
54936;BME280;40838;50.676;7.838;2023-07-20T08:42:16;98234.56;;;21.09;100.00
54936;BME280;40838;50.676;7.838;2023-07-20T08:44:46;98239.84;;;21.65;94.74
54936;BME280;40838;50.676;7.838;2023-07-20T08:47:16;98237.06;;;21.23;97.81
54936;BME280;40838;50.676;7.838;2023-07-20T08:49:43;98233.38;;;19.93;100.00
54936;BME280;40838;50.676;7.838;2023-07-20T08:52:13;98243.06;;;19.15;100.00
54936;BME280;40838;50.676;7.838;2023-07-20T08:54:42;98252.31;;;18.69;100.00
54936;BME280;40838;50.676;7.838;2023-07-20T08:57:13;98231.63;;;21.70;98.95
54936;BME280;40838;50.676;7.838;2023-07-20T08:59:42;98231.03;;;21.85;96.29
54936;BME280;40838;50.676;7.838;2023-07-20T09:02:12;98236.06;;;20.72;94.98
54936;BME280;40838;50.676;7.838;2023-07-20T09:04:44;98237.84;;;19.41;100.00
54936;BME280;40838;50.676;7.838;2023-07-20T09:07:15;98234.19;;;19.05;100.00
54936;BME280;40838;50.676;7.838;2023-07-20T09:09:43;98240.31;;;18.66;100.00
54936;BME280;40838;50.676;7.838;2023-07-20T09:12:13;98227.78;;;18.39;100.00
54936;BME280;40838;50.676;7.838;2023-07-20T09:14:44;98237.47;;;17.90;100.00
54936;BME280;40838;50.676;7.838;2023-07-20T09:17:13;98235.81;;;17.66;100.00
54936;BME280;40838;50.676;7.838;2023-07-20T09:19:45;98235.22;;;18.42;100.00
54936;BME280;40838;50.676;7.838;2023-07-20T09:22:12;98235.50;;;18.54;100.00
54936;BME280;40838;50.676;7.838;2023-07-20T09:24:39;98234.72;;;18.54;100.00
54936;BME280;40838;50.676;7.838;2023-07-20T09:27:09;98237.84;;;18.33;100.00
54936;BME280;40838;50.676;7.838;2023-07-20T09:29:47;98234.09;;;18.21;100.00
54936;BME280;40838;50.676;7.838;2023-07-20T09:32:18;98233.91;;;19.38;100.00
54936;BME280;40838;50.676;7.838;2023-07-20T09:34:47;98221.75;;;21.06;99.29
54936;BME280;40838;50.676;7.838;2023-07-20T09:37:20;98225.38;;;22.20;90.66
54936;BME280;40838;50.676;7.838;2023-07-20T09:39:47;98231.97;;;21.21;92.13
54936;BME280;40838;50.676;7.838;2023-07-20T09:42:15;98231.44;;;21.37;93.68
54936;BME280;40838;50.676;7.838;2023-07-20T09:44:46;98229.06;;;21.35;91.03
54936;BME280;40838;50.676;7.838;2023-07-20T09:47:27;98219.78;;;22.79;82.18
54936;BME280;40838;50.676;7.838;2023-07-20T09:50:00;98218.19;;;22.66;83.31
54936;BME280;40838;50.676;7.838;2023-07-20T09:52:45;98210.50;;;22.35;84.27
54936;BME280;40838;50.676;7.838;2023-07-20T09:55:23;98218.31;;;22.82;82.91
54936;BME280;40838;50.676;7.838;2023-07-20T09:57:52;98218.34;;;21.26;82.20
54936;BME280;40838;50.676;7.838;2023-07-20T10:00:30;98215.72;;;23.19;77.63
54936;BME280;40838;50.676;7.838;2023-07-20T10:03:00;98210.69;;;23.94;74.63
54936;BME280;40838;50.676;7.838;2023-07-20T10:05:32;98208.06;;;24.10;71.01
54936;BME280;40838;50.676;7.838;2023-07-20T10:08:01;98205.09;;;23.87;72.69
54936;BME280;40838;50.676;7.838;2023-07-20T10:10:31;98199.00;;;23.90;70.32
54936;BME280;40838;50.676;7.838;2023-07-20T10:13:01;98207.25;;;21.28;85.99
54936;BME280;40838;50.676;7.838;2023-07-20T10:15:33;98203.81;;;20.54;89.74
54936;BME280;40838;50.676;7.838;2023-07-20T10:18:06;98208.50;;;19.44;97.44
54936;BME280;40838;50.676;7.838;2023-07-20T10:20:39;98207.38;;;19.45;96.19
54936;BME280;40838;50.676;7.838;2023-07-20T10:23:07;98210.16;;;20.06;95.79
54936;BME280;40838;50.676;7.838;2023-07-20T10:25:36;98206.47;;;22.62;74.63
54936;BME280;40838;50.676;7.838;2023-07-20T10:28:05;98194.88;;;23.56;72.95
54936;BME280;40838;50.676;7.838;2023-07-20T10:30:34;98196.25;;;25.03;66.56
54936;BME280;40838;50.676;7.838;2023-07-20T10:33:01;98189.88;;;23.83;66.68
54936;BME280;40838;50.676;7.838;2023-07-20T10:35:30;98198.53;;;23.88;65.89
54936;BME280;40838;50.676;7.838;2023-07-20T10:38:00;98189.72;;;23.26;69.19
54936;BME280;40838;50.676;7.838;2023-07-20T10:40:33;98183.03;;;25.01;63.66
54936;BME280;40838;50.676;7.838;2023-07-20T10:43:04;98181.38;;;24.37;65.95
54936;BME280;40838;50.676;7.838;2023-07-20T10:45:35;98171.72;;;24.23;66.20
54936;BME280;40838;50.676;7.838;2023-07-20T10:53:51;98173.03;;;23.61;61.80
54936;BME280;40838;50.676;7.838;2023-07-20T10:56:38;98169.00;;;23.55;59.81
54936;BME280;40838;50.676;7.838;2023-07-20T10:59:17;98165.31;;;24.72;58.50
54936;BME280;40838;50.676;7.838;2023-07-20T11:02:06;98168.63;;;24.97;58.25
54936;BME280;40838;50.676;7.838;2023-07-20T11:04:42;98168.00;;;23.23;66.93
54936;BME280;40838;50.676;7.838;2023-07-20T11:07:09;98175.78;;;22.33;74.77
54936;BME280;40838;50.676;7.838;2023-07-20T11:09:38;98168.41;;;21.88;73.29
54936;BME280;40838;50.676;7.838;2023-07-20T11:12:10;98174.31;;;22.03;74.50
54936;BME280;40838;50.676;7.838;2023-07-20T11:14:40;98167.50;;;22.72;71.13
54936;BME280;40838;50.676;7.838;2023-07-20T11:17:13;98170.66;;;23.72;67.45
54936;BME280;40838;50.676;7.838;2023-07-20T11:19:41;98166.13;;;24.44;61.06
54936;BME280;40838;50.676;7.838;2023-07-20T11:22:09;98164.34;;;22.36;67.17
54936;BME280;40838;50.676;7.838;2023-07-20T11:24:43;98164.75;;;22.47;66.79
54936;BME280;40838;50.676;7.838;2023-07-20T11:27:12;98158.88;;;23.15;64.08
54936;BME280;40838;50.676;7.838;2023-07-20T11:29:40;98153.56;;;22.70;67.23
54936;BME280;40838;50.676;7.838;2023-07-20T11:32:08;98156.25;;;22.70;67.60
54936;BME280;40838;50.676;7.838;2023-07-20T11:34:37;98165.72;;;21.88;71.53
54936;BME280;40838;50.676;7.838;2023-07-20T11:37:05;98167.38;;;21.51;72.92
54936;BME280;40838;50.676;7.838;2023-07-20T11:39:32;98172.69;;;21.09;69.65
54936;BME280;40838;50.676;7.838;2023-07-20T11:41:59;98177.19;;;20.88;71.39
54936;BME280;40838;50.676;7.838;2023-07-20T11:44:27;98171.38;;;21.15;74.15
54936;BME280;40838;50.676;7.838;2023-07-20T11:47:02;98182.72;;;21.29;73.80
54936;BME280;40838;50.676;7.838;2023-07-20T11:50:02;98177.97;;;21.26;74.93
54936;BME280;40838;50.676;7.838;2023-07-20T11:52:30;98171.72;;;21.43;75.03
54936;BME280;40838;50.676;7.838;2023-07-20T11:54:59;98176.69;;;21.83;74.32
54936;BME280;40838;50.676;7.838;2023-07-20T11:57:26;98177.25;;;22.10;71.95
54936;BME280;40838;50.676;7.838;2023-07-20T11:59:56;98159.06;;;22.98;67.26
54936;BME280;40838;50.676;7.838;2023-07-20T12:02:26;98169.19;;;23.87;66.40
54936;BME280;40838;50.676;7.838;2023-07-20T12:04:54;98157.75;;;23.04;64.29
54936;BME280;40838;50.676;7.838;2023-07-20T12:07:26;98153.41;;;22.20;70.13
54936;BME280;40838;50.676;7.838;2023-07-20T12:10:05;98156.13;;;21.99;70.21
54936;BME280;40838;50.676;7.838;2023-07-20T12:12:32;98161.72;;;21.44;70.07
54936;BME280;40838;50.676;7.838;2023-07-20T12:15:13;98158.25;;;21.73;65.80
54936;BME280;40838;50.676;7.838;2023-07-20T12:17:45;98163.88;;;21.29;69.73
54936;BME280;40838;50.676;7.838;2023-07-20T12:20:24;98164.47;;;21.05;70.17
54936;BME280;40838;50.676;7.838;2023-07-20T12:22:56;98172.13;;;20.77;71.09
54936;BME280;40838;50.676;7.838;2023-07-20T12:25:32;98172.75;;;20.83;71.11
54936;BME280;40838;50.676;7.838;2023-07-20T12:28:01;98164.84;;;21.25;69.52
54936;BME280;40838;50.676;7.838;2023-07-20T12:30:29;98172.16;;;21.45;68.22
54936;BME280;40838;50.676;7.838;2023-07-20T12:32:56;98167.38;;;21.51;68.38
54936;BME280;40838;50.676;7.838;2023-07-20T12:35:23;98149.78;;;23.32;61.40
54936;BME280;40838;50.676;7.838;2023-07-20T12:37:49;98159.56;;;23.49;55.22
54936;BME280;40838;50.676;7.838;2023-07-20T12:40:21;98151.22;;;23.42;54.34
54936;BME280;40838;50.676;7.838;2023-07-20T12:42:50;98156.41;;;23.10;58.00
54936;BME280;40838;50.676;7.838;2023-07-20T12:45:31;98148.66;;;23.21;57.02
54936;BME280;40838;50.676;7.838;2023-07-20T12:47:58;98147.44;;;22.48;59.05
54936;BME280;40838;50.676;7.838;2023-07-20T12:50:25;98135.50;;;23.19;58.26
54936;BME280;40838;50.676;7.838;2023-07-20T12:52:52;98148.44;;;22.43;61.66
54936;BME280;40838;50.676;7.838;2023-07-20T12:55:20;98146.88;;;22.21;62.85
54936;BME280;40838;50.676;7.838;2023-07-20T12:57:48;98149.19;;;21.69;66.12
54936;BME280;40838;50.676;7.838;2023-07-20T13:00:16;98134.09;;;21.56;67.25
54936;BME280;40838;50.676;7.838;2023-07-20T13:02:45;98143.66;;;20.76;73.31
54936;BME280;40838;50.676;7.838;2023-07-20T13:05:14;98142.34;;;21.00;77.31
54936;BME280;40838;50.676;7.838;2023-07-20T13:07:42;98142.34;;;21.29;76.15
54936;BME280;40838;50.676;7.838;2023-07-20T13:10:11;98140.13;;;21.52;75.05
54936;BME280;40838;50.676;7.838;2023-07-20T13:12:40;98145.88;;;21.72;73.43
54936;BME280;40838;50.676;7.838;2023-07-20T13:15:08;98146.53;;;21.90;72.81